createdAt,value
2022-09-16T00:01:21.798Z,1.90
2022-09-16T00:03:48.245Z,1.90
2022-09-16T00:06:19.449Z,2.07
2022-09-16T00:08:45.854Z,1.70
2022-09-16T00:11:12.517Z,1.87
2022-09-16T00:13:38.880Z,1.73
2022-09-16T00:16:09.932Z,1.73
2022-09-16T00:18:36.384Z,2.23
2022-09-16T00:21:02.772Z,2.40
2022-09-16T00:23:29.097Z,1.93
2022-09-16T00:25:55.587Z,2.20
2022-09-16T00:28:22.472Z,2.20
2022-09-16T00:30:49.379Z,2.27
2022-09-16T00:33:16.342Z,1.97
2022-09-16T00:35:42.757Z,1.70
2022-09-16T00:38:09.115Z,1.57
2022-09-16T00:40:35.911Z,2.23
2022-09-16T00:43:02.315Z,2.47
2022-09-16T00:45:31.700Z,2.00
2022-09-16T00:47:59.822Z,2.20
2022-09-16T00:50:26.152Z,2.20
2022-09-16T00:52:53.908Z,2.93
2022-09-16T00:55:23.471Z,2.50
2022-09-16T00:57:50.768Z,2.70
2022-09-16T01:00:17.800Z,2.60
2022-09-16T01:02:45.648Z,2.63
2022-09-16T01:05:14.243Z,2.20
2022-09-16T01:07:51.032Z,2.37
2022-09-16T01:10:19.346Z,2.87
2022-09-16T01:12:47.607Z,2.57
2022-09-16T01:15:14.467Z,3.13
2022-09-16T01:17:46.991Z,2.97
2022-09-16T01:20:16.430Z,2.30
2022-09-16T01:22:55.020Z,2.57
2022-09-16T01:25:28.316Z,2.13
2022-09-16T01:28:18.697Z,2.43
2022-09-16T01:30:45.065Z,3.00
2022-09-16T01:33:27.267Z,2.33
2022-09-16T01:36:02.063Z,2.20
2022-09-16T01:38:46.152Z,2.00
2022-09-16T01:41:24.686Z,2.27
2022-09-16T01:43:57.996Z,2.40
2022-09-16T01:46:24.368Z,2.67
2022-09-16T01:48:53.731Z,2.27
2022-09-16T01:51:27.019Z,2.97
2022-09-16T01:54:07.202Z,3.37
2022-09-16T01:56:39.770Z,3.43
2022-09-16T01:59:06.104Z,3.10
2022-09-16T02:01:35.483Z,3.00
2022-09-16T02:04:04.058Z,2.97
2022-09-16T02:06:31.772Z,2.53
2022-09-16T02:09:06.207Z,3.63
2022-09-16T02:11:33.186Z,3.77
2022-09-16T02:14:20.877Z,4.10
2022-09-16T02:16:51.241Z,3.70
2022-09-16T02:19:20.705Z,3.60
2022-09-16T02:21:47.466Z,3.23
2022-09-16T02:24:16.959Z,3.60
2022-09-16T02:26:46.420Z,5.97
2022-09-16T02:29:15.322Z,7.33
2022-09-16T02:31:43.279Z,3.23
2022-09-16T02:34:14.442Z,3.30
2022-09-16T02:36:41.735Z,3.47
2022-09-16T02:39:09.420Z,4.30
2022-09-16T02:41:37.312Z,3.60
2022-09-16T02:44:03.769Z,3.80
2022-09-16T02:46:53.142Z,3.30
2022-09-16T02:49:26.869Z,2.90
2022-09-16T02:51:56.265Z,2.83
2022-09-16T02:54:40.812Z,3.23
2022-09-16T02:57:07.224Z,3.10
2022-09-16T02:59:33.592Z,3.10
2022-09-16T03:02:01.356Z,2.90
2022-09-16T03:04:28.402Z,2.97
2022-09-16T03:06:54.758Z,2.60
2022-09-16T03:09:24.330Z,2.13
2022-09-16T03:12:03.046Z,2.50
2022-09-16T03:14:39.915Z,2.63
2022-09-16T03:17:24.835Z,2.87
2022-09-16T03:20:12.103Z,2.70
2022-09-16T03:22:48.410Z,2.90
2022-09-16T03:25:36.410Z,2.40
2022-09-16T03:28:02.899Z,2.50
2022-09-16T03:30:32.219Z,3.50
2022-09-16T03:33:00.205Z,2.90
2022-09-16T03:35:28.822Z,2.97
2022-09-16T03:37:56.934Z,2.63
2022-09-16T03:40:23.457Z,3.63
2022-09-16T03:42:50.103Z,2.97
2022-09-16T03:45:17.699Z,3.10
2022-09-16T03:47:45.595Z,2.87
2022-09-16T03:50:34.601Z,3.33
2022-09-16T03:53:01.235Z,3.37
2022-09-16T03:55:27.618Z,4.00
2022-09-16T03:57:54.182Z,3.20
2022-09-16T04:00:20.602Z,3.47
2022-09-16T04:02:47.129Z,3.47
2022-09-16T04:05:13.563Z,3.63
2022-09-16T04:07:39.935Z,2.93
2022-09-16T04:10:06.994Z,2.93
2022-09-16T04:12:33.830Z,3.03
2022-09-16T04:15:01.002Z,3.00
2022-09-16T04:17:27.578Z,3.13
2022-09-16T04:19:53.961Z,2.53
2022-09-16T04:22:20.604Z,3.30
2022-09-16T04:24:46.957Z,2.57
2022-09-16T04:27:13.306Z,2.50
2022-09-16T04:29:39.655Z,2.83
2022-09-16T04:32:06.032Z,2.77
2022-09-16T04:34:32.581Z,3.27
2022-09-16T04:36:59.270Z,3.67
2022-09-16T04:39:25.670Z,3.90
2022-09-16T04:41:52.041Z,12.07
2022-09-16T04:44:18.494Z,3.37
2022-09-16T04:46:44.824Z,3.60
2022-09-16T04:49:12.900Z,3.87
2022-09-16T04:51:39.330Z,2.83
2022-09-16T04:54:05.720Z,3.30
2022-09-16T04:56:32.887Z,3.67
2022-09-16T04:59:00.585Z,3.17
2022-09-16T05:01:28.822Z,3.70
2022-09-16T05:03:56.235Z,3.03
2022-09-16T05:06:29.598Z,3.27
2022-09-16T05:08:56.519Z,3.10
2022-09-16T05:11:24.282Z,2.77
2022-09-16T05:13:50.971Z,2.80
2022-09-16T05:16:20.668Z,2.87
2022-09-16T05:18:47.941Z,3.10
2022-09-16T05:21:16.070Z,3.77
2022-09-16T05:23:46.704Z,3.97
2022-09-16T05:26:15.405Z,2.97
2022-09-16T05:28:41.797Z,2.87
2022-09-16T05:31:09.682Z,1.93
2022-09-16T05:33:36.109Z,2.97
2022-09-16T05:36:06.427Z,2.60
2022-09-16T05:38:33.221Z,2.63
2022-09-16T05:41:00.415Z,2.93
2022-09-16T05:43:26.806Z,3.43
2022-09-16T05:45:53.819Z,2.70
2022-09-16T05:48:20.278Z,3.13
2022-09-16T05:51:03.703Z,3.13
2022-09-16T05:53:30.758Z,2.50
2022-09-16T05:56:01.656Z,2.93
2022-09-16T05:58:28.950Z,2.73
2022-09-16T06:01:02.236Z,2.90
2022-09-16T06:03:28.979Z,2.60
2022-09-16T06:06:21.933Z,2.17
2022-09-16T06:08:48.829Z,2.13
2022-09-16T06:11:15.671Z,2.50
2022-09-16T06:13:42.026Z,2.67
2022-09-16T06:16:09.596Z,2.03
2022-09-16T06:18:36.746Z,2.37
2022-09-16T06:21:04.967Z,2.27
2022-09-16T06:23:31.580Z,2.67
2022-09-16T06:26:02.080Z,2.80
2022-09-16T06:28:28.686Z,2.13
2022-09-16T06:31:08.962Z,2.43
2022-09-16T06:33:35.682Z,2.70
2022-09-16T06:36:09.372Z,3.37
2022-09-16T06:38:36.332Z,2.50
2022-09-16T06:41:04.011Z,2.47
2022-09-16T06:43:30.488Z,2.27
2022-09-16T06:45:58.204Z,2.07
2022-09-16T06:48:24.923Z,2.57
2022-09-16T06:50:57.231Z,1.80
2022-09-16T06:53:23.555Z,1.60
2022-09-16T06:55:49.894Z,1.43
2022-09-16T06:58:16.202Z,3.00
2022-09-16T07:00:42.544Z,2.10
2022-09-16T07:03:08.891Z,1.67
2022-09-16T07:05:35.271Z,2.40
2022-09-16T07:08:01.720Z,1.97
2022-09-16T07:10:28.312Z,1.60
2022-09-16T07:12:54.717Z,1.97
2022-09-16T07:15:21.054Z,1.87
2022-09-16T07:17:47.387Z,1.60
2022-09-16T07:20:13.832Z,2.00
2022-09-16T07:22:40.275Z,2.07
2022-09-16T07:25:06.723Z,4.03
2022-09-16T07:27:33.095Z,1.63
2022-09-16T07:30:00.289Z,1.50
2022-09-16T07:32:26.839Z,1.87
2022-09-16T07:34:53.975Z,1.60
2022-09-16T07:37:21.158Z,1.60
2022-09-16T07:39:47.516Z,1.50
2022-09-16T07:42:13.904Z,1.70
2022-09-16T07:44:40.754Z,1.43
2022-09-16T07:47:07.119Z,1.60
2022-09-16T07:49:33.520Z,1.80
2022-09-16T07:52:00.394Z,1.70
2022-09-16T07:54:26.749Z,1.90
2022-09-16T07:56:53.164Z,1.60
2022-09-16T07:59:20.087Z,2.17
2022-09-16T08:01:47.890Z,1.50
2022-09-16T08:04:14.664Z,1.67
2022-09-16T08:06:41.092Z,5.10
2022-09-16T08:09:15.548Z,6.00
2022-09-16T08:11:54.280Z,1.70
2022-09-16T08:14:20.612Z,1.70
2022-09-16T08:16:47.165Z,1.60
2022-09-16T08:19:13.824Z,1.80
2022-09-16T08:21:40.159Z,2.03
2022-09-16T08:24:06.498Z,1.80
2022-09-16T08:26:32.853Z,2.13
2022-09-16T08:29:14.873Z,1.57
2022-09-16T08:31:41.507Z,1.40
2022-09-16T08:34:07.870Z,1.67
2022-09-16T08:36:34.432Z,1.60
2022-09-16T08:39:01.120Z,1.40
2022-09-16T08:41:33.584Z,1.33
2022-09-16T08:44:18.210Z,2.03
2022-09-16T08:46:50.324Z,1.93
2022-09-16T08:49:32.043Z,1.70
2022-09-16T08:51:59.483Z,1.87
2022-09-16T08:54:38.549Z,1.63
2022-09-16T08:57:05.435Z,1.83
2022-09-16T08:59:37.647Z,1.30
2022-09-16T09:02:09.670Z,1.60
2022-09-16T09:04:36.424Z,1.73
2022-09-16T09:07:02.810Z,1.43
2022-09-16T09:09:31.457Z,1.60
2022-09-16T09:12:17.339Z,1.73
2022-09-16T09:15:02.877Z,1.70
2022-09-16T09:17:55.656Z,1.73
2022-09-16T09:20:21.986Z,1.37
2022-09-16T09:22:53.521Z,2.50
2022-09-16T09:25:19.846Z,2.13
2022-09-16T09:27:55.434Z,1.63
2022-09-16T09:30:21.856Z,2.07
2022-09-16T09:32:57.828Z,1.70
2022-09-16T09:35:24.218Z,1.50
2022-09-16T09:37:59.060Z,1.93
2022-09-16T09:40:37.840Z,1.63
2022-09-16T09:43:19.318Z,2.00
2022-09-16T09:45:48.714Z,1.50
2022-09-16T09:48:23.733Z,1.47
2022-09-16T09:50:51.183Z,1.40
2022-09-16T09:53:28.893Z,1.10
2022-09-16T09:56:00.423Z,2.07
2022-09-16T09:58:59.256Z,2.00
2022-09-16T10:01:25.675Z,1.30
2022-09-16T10:03:54.539Z,2.00
2022-09-16T10:06:26.069Z,2.07
2022-09-16T10:08:54.232Z,4.13
2022-09-16T10:11:22.510Z,1.90
2022-09-16T10:13:50.644Z,1.57
2022-09-16T10:16:21.780Z,1.57
2022-09-16T10:19:00.697Z,1.63
2022-09-16T10:21:37.276Z,1.47
2022-09-16T10:24:03.658Z,1.67
2022-09-16T10:26:30.138Z,1.80
2022-09-16T10:29:12.605Z,1.50
2022-09-16T10:31:40.729Z,1.50
2022-09-16T10:34:17.491Z,1.20
2022-09-16T10:36:44.133Z,1.30
2022-09-16T10:39:21.650Z,1.67
2022-09-16T10:41:47.981Z,1.53
2022-09-16T10:44:17.532Z,1.67
2022-09-16T10:46:52.283Z,1.17
2022-09-16T10:49:20.424Z,1.20
2022-09-16T10:51:46.778Z,1.30
2022-09-16T10:54:23.951Z,1.20
2022-09-16T10:56:51.503Z,1.50
2022-09-16T10:59:17.871Z,1.53
2022-09-16T11:01:52.883Z,1.30
2022-09-16T11:04:25.699Z,1.77
2022-09-16T11:07:00.545Z,1.90
2022-09-16T11:09:36.426Z,1.50
2022-09-16T11:12:11.084Z,1.37
2022-09-16T11:14:43.479Z,1.47
2022-09-16T11:17:23.882Z,1.20
2022-09-16T11:19:50.214Z,1.50
2022-09-16T11:22:28.849Z,1.17
2022-09-16T11:25:11.903Z,1.20
2022-09-16T11:27:55.470Z,2.07
2022-09-16T11:30:22.559Z,1.33
2022-09-16T11:33:03.016Z,1.60
2022-09-16T11:35:35.806Z,1.30
2022-09-16T11:38:08.211Z,1.33
2022-09-16T11:40:42.590Z,1.60
2022-09-16T11:43:18.023Z,2.03
2022-09-16T11:45:56.803Z,1.40
2022-09-16T11:48:23.118Z,1.97
2022-09-16T11:50:58.517Z,1.37
2022-09-16T11:53:46.619Z,2.00
2022-09-16T11:56:32.115Z,1.83
2022-09-16T11:59:04.682Z,1.53
2022-09-16T12:01:45.863Z,1.60
2022-09-16T12:04:22.866Z,1.40
2022-09-16T12:07:09.512Z,1.33
2022-09-16T12:09:49.057Z,1.60
2022-09-16T12:12:20.129Z,1.20
2022-09-16T12:15:05.663Z,1.37
2022-09-16T12:17:35.054Z,1.57
2022-09-16T12:20:13.710Z,1.67
2022-09-16T12:22:42.339Z,1.60
2022-09-16T12:25:14.764Z,1.30
2022-09-16T12:27:50.856Z,1.80
2022-09-16T12:30:19.010Z,2.40
2022-09-16T12:33:06.165Z,2.33
2022-09-16T12:35:41.023Z,1.30
2022-09-16T12:38:17.935Z,1.53
2022-09-16T12:41:10.863Z,1.37
2022-09-16T12:43:51.603Z,1.37
2022-09-16T12:46:37.110Z,6.60
2022-09-16T12:49:06.503Z,2.97
2022-09-16T12:51:50.676Z,1.60
2022-09-16T12:54:17.120Z,1.40
2022-09-16T12:56:50.642Z,1.47
2022-09-16T12:59:41.786Z,1.40
2022-09-16T13:02:22.760Z,1.50
2022-09-16T13:04:51.311Z,1.20
2022-09-16T13:07:28.165Z,1.60
2022-09-16T13:10:06.127Z,1.13
2022-09-16T13:12:41.508Z,1.70
2022-09-16T13:15:22.156Z,1.87
2022-09-16T13:17:52.789Z,1.87
2022-09-16T13:20:30.105Z,1.90
2022-09-16T13:23:15.169Z,0.90
2022-09-16T13:25:48.363Z,1.23
2022-09-16T13:28:25.226Z,1.27
2022-09-16T13:30:51.653Z,1.30
2022-09-16T13:33:18.021Z,1.40
2022-09-16T13:35:46.788Z,1.60
2022-09-16T13:38:19.265Z,1.83
2022-09-16T13:40:59.440Z,1.37
2022-09-16T13:43:50.526Z,1.20
2022-09-16T13:46:32.159Z,1.43
2022-09-16T13:49:11.012Z,1.60
2022-09-16T13:51:44.570Z,1.80
2022-09-16T13:54:31.209Z,1.60
2022-09-16T13:57:12.754Z,2.00
2022-09-16T13:59:39.384Z,1.30
2022-09-16T14:02:08.892Z,1.47
2022-09-16T14:04:35.502Z,1.43
2022-09-16T14:07:11.101Z,1.93
2022-09-16T14:10:00.572Z,1.70
2022-09-16T14:12:33.067Z,1.97
2022-09-16T14:14:59.974Z,2.27
2022-09-16T14:17:30.664Z,2.10
2022-09-16T14:19:59.752Z,2.00
2022-09-16T14:22:27.692Z,2.40
2022-09-16T14:25:05.785Z,2.10
2022-09-16T14:27:39.864Z,2.67
2022-09-16T14:30:12.967Z,1.40
2022-09-16T14:32:40.807Z,1.63
2022-09-16T14:35:16.380Z,2.00
2022-09-16T14:37:44.958Z,2.80
2022-09-16T14:40:15.382Z,1.97
2022-09-16T14:43:03.251Z,2.33
2022-09-16T14:45:30.786Z,2.20
2022-09-16T14:47:57.994Z,2.43
2022-09-16T14:50:30.356Z,2.03
2022-09-16T14:53:00.918Z,2.30
2022-09-16T14:55:30.081Z,2.13
2022-09-16T14:57:58.206Z,2.37
2022-09-16T15:00:39.162Z,2.07
2022-09-16T15:03:12.088Z,2.40
2022-09-16T15:05:42.662Z,2.93
2022-09-16T15:08:14.193Z,1.80
2022-09-16T15:10:51.986Z,3.47
2022-09-16T15:13:22.993Z,2.03
2022-09-16T15:15:51.231Z,2.33
2022-09-16T15:18:32.844Z,2.57
2022-09-16T15:21:05.182Z,2.43
2022-09-16T15:23:39.293Z,2.43
2022-09-16T15:26:14.502Z,2.40
2022-09-16T15:29:01.111Z,2.53
2022-09-16T15:31:38.879Z,2.30
2022-09-16T15:34:19.150Z,5.17
2022-09-16T15:36:46.964Z,1.90
2022-09-16T15:39:25.513Z,2.40
2022-09-16T15:42:05.003Z,1.77
2022-09-16T15:44:36.429Z,2.20
2022-09-16T15:47:04.129Z,2.70
2022-09-16T15:49:32.261Z,2.53
2022-09-16T15:55:00.776Z,2.57
2022-09-16T15:57:38.515Z,2.40
2022-09-16T16:00:12.443Z,2.63
2022-09-16T16:02:41.350Z,2.40
2022-09-16T16:05:08.952Z,2.70
2022-09-16T16:07:49.221Z,2.63
2022-09-16T16:10:23.847Z,2.60
2022-09-16T16:12:51.114Z,2.87
2022-09-16T16:15:25.312Z,1.83
2022-09-16T16:17:53.119Z,2.47
2022-09-16T16:20:20.125Z,2.70
2022-09-16T16:22:47.013Z,2.20
2022-09-16T16:25:14.045Z,2.50
2022-09-16T16:27:40.562Z,2.57
2022-09-16T16:30:07.933Z,3.27
2022-09-16T16:32:35.141Z,3.37
2022-09-16T16:35:01.866Z,3.67
2022-09-16T16:37:45.590Z,4.10
2022-09-16T16:40:14.210Z,4.13
2022-09-16T16:42:43.120Z,5.50
2022-09-16T16:45:09.667Z,6.40
2022-09-16T16:47:36.094Z,7.33
2022-09-16T16:50:02.431Z,7.77
2022-09-16T16:52:28.755Z,7.30
2022-09-16T16:54:55.137Z,6.93
2022-09-16T16:57:21.569Z,5.20
2022-09-16T16:59:47.922Z,5.00
2022-09-16T17:02:15.182Z,4.20
2022-09-16T17:04:41.649Z,4.77
2022-09-16T17:07:25.165Z,4.33
2022-09-16T17:09:53.304Z,5.37
2022-09-16T17:12:19.756Z,10.70
2022-09-16T17:14:46.158Z,4.97
2022-09-16T17:17:12.531Z,4.83
2022-09-16T17:19:38.873Z,5.17
2022-09-16T17:22:05.232Z,4.93
2022-09-16T17:24:31.690Z,5.13
2022-09-16T17:26:58.045Z,4.50
2022-09-16T17:29:24.411Z,4.67
2022-09-16T17:31:50.787Z,4.37
2022-09-16T17:34:19.995Z,4.80
2022-09-16T17:36:46.619Z,4.80
2022-09-16T17:39:17.911Z,4.70
2022-09-16T17:41:45.708Z,4.93
2022-09-16T17:44:13.106Z,4.70
2022-09-16T17:46:40.114Z,4.77
2022-09-16T17:49:07.939Z,4.90
2022-09-16T17:51:34.806Z,4.20
2022-09-16T17:54:01.257Z,5.80
2022-09-16T17:56:27.606Z,4.50
2022-09-16T17:58:54.376Z,4.23
2022-09-16T18:01:22.083Z,3.77
2022-09-16T18:03:49.679Z,5.13
2022-09-16T18:06:17.853Z,3.83
2022-09-16T18:08:44.242Z,3.80
2022-09-16T18:11:11.787Z,12.33
2022-09-16T18:13:39.240Z,10.20
2022-09-16T18:16:10.695Z,4.83
2022-09-16T18:18:38.052Z,3.60
2022-09-16T18:21:04.941Z,4.60
2022-09-16T18:23:31.527Z,4.60
2022-09-16T18:25:57.924Z,3.70
2022-09-16T18:28:24.491Z,4.60
2022-09-16T18:31:01.048Z,3.60
2022-09-16T18:33:27.487Z,5.33
2022-09-16T18:35:57.668Z,4.93
2022-09-16T18:38:24.021Z,4.80
2022-09-16T18:40:51.215Z,4.57
2022-09-16T18:43:17.544Z,4.23
2022-09-16T18:45:44.215Z,4.97
2022-09-16T18:48:10.605Z,4.60
2022-09-16T18:50:36.940Z,3.93
2022-09-16T18:53:03.300Z,5.00
2022-09-16T18:55:31.126Z,4.90
2022-09-16T18:57:57.843Z,5.13
2022-09-16T19:00:24.242Z,4.73
2022-09-16T19:02:51.896Z,4.10
2022-09-16T19:05:19.333Z,4.80
2022-09-16T19:07:45.691Z,9.43
2022-09-16T19:10:12.020Z,4.30
2022-09-16T19:12:39.406Z,3.87
2022-09-16T19:15:06.402Z,4.93
2022-09-16T19:17:33.138Z,3.70
2022-09-16T19:20:00.336Z,3.83
2022-09-16T19:22:26.865Z,3.90
2022-09-16T19:24:54.287Z,4.77
2022-09-16T19:27:20.629Z,4.13
2022-09-16T19:29:46.966Z,3.67
2022-09-16T19:32:13.404Z,4.07
2022-09-16T19:34:39.807Z,5.30
2022-09-16T19:37:06.323Z,4.63
2022-09-16T19:39:32.707Z,3.40
2022-09-16T19:42:03.487Z,3.93
2022-09-16T19:44:30.141Z,3.50
2022-09-16T19:46:56.702Z,3.53
2022-09-16T19:49:23.308Z,4.33
2022-09-16T19:51:50.919Z,4.00
2022-09-16T19:54:17.400Z,4.40
2022-09-16T19:56:48.176Z,4.40
2022-09-16T19:59:16.662Z,4.10
2022-09-16T20:01:43.922Z,2.97
2022-09-16T20:04:10.809Z,3.37
2022-09-16T20:06:38.767Z,3.83
2022-09-16T20:09:06.457Z,3.40
2022-09-16T20:11:34.726Z,4.30
2022-09-16T20:14:02.350Z,3.97
2022-09-16T20:16:31.348Z,3.27
2022-09-16T20:18:57.933Z,3.77
2022-09-16T20:21:25.393Z,3.87
2022-09-16T20:23:52.229Z,3.37
2022-09-16T20:26:22.083Z,3.40
2022-09-16T20:28:52.098Z,3.70
2022-09-16T20:31:20.691Z,3.27
2022-09-16T20:33:47.594Z,3.03
2022-09-16T20:36:15.491Z,3.70
2022-09-16T20:38:41.867Z,3.13
2022-09-16T20:41:09.947Z,4.00
2022-09-16T20:43:36.443Z,3.73
2022-09-16T20:46:03.909Z,3.77
2022-09-16T20:48:30.343Z,3.50
2022-09-16T20:50:56.680Z,4.10
2022-09-16T20:53:23.220Z,3.47
2022-09-16T20:55:49.555Z,3.70
2022-09-16T20:58:15.889Z,3.13
2022-09-16T21:00:42.307Z,3.83
2022-09-16T21:03:11.522Z,3.37
2022-09-16T21:05:37.848Z,3.50
2022-09-16T21:08:04.814Z,3.83
2022-09-16T21:10:31.126Z,3.50
2022-09-16T21:12:58.032Z,3.33
2022-09-16T21:15:24.426Z,3.13
2022-09-16T21:17:50.738Z,3.63
2022-09-16T21:20:18.252Z,3.63
2022-09-16T21:22:44.625Z,3.63
2022-09-16T21:25:11.430Z,14.17
2022-09-16T21:27:38.126Z,24.60
2022-09-16T21:30:04.788Z,3.33
2022-09-16T21:32:32.606Z,3.17
2022-09-16T21:34:59.385Z,3.00
2022-09-16T21:37:25.758Z,2.87
2022-09-16T21:39:52.121Z,3.57
2022-09-16T21:42:18.463Z,4.13
2022-09-16T21:44:45.388Z,3.33
2022-09-16T21:47:12.111Z,4.03
2022-09-16T21:49:38.546Z,3.73
2022-09-16T21:52:05.033Z,4.10
2022-09-16T21:54:32.326Z,3.70
2022-09-16T21:56:59.543Z,3.60
2022-09-16T21:59:25.930Z,3.70
2022-09-16T22:01:52.328Z,3.87
2022-09-16T22:04:20.286Z,3.60
2022-09-16T22:06:48.737Z,3.57
2022-09-16T22:09:15.138Z,3.70
2022-09-16T22:11:41.904Z,3.73
2022-09-16T22:14:08.785Z,3.63
2022-09-16T22:16:37.509Z,3.80
2022-09-16T22:19:05.106Z,3.60
2022-09-16T22:21:33.493Z,3.83
2022-09-16T22:24:00.450Z,3.47
2022-09-16T22:26:27.148Z,4.27
2022-09-16T22:28:53.562Z,4.17
2022-09-16T22:31:25.569Z,3.33
2022-09-16T22:33:53.134Z,4.57
2022-09-16T22:36:20.401Z,3.97
2022-09-16T22:38:51.679Z,3.43
2022-09-16T22:41:18.551Z,3.70
2022-09-16T22:43:46.095Z,5.07
2022-09-16T22:46:22.132Z,4.60
2022-09-16T22:48:48.929Z,4.27
2022-09-16T22:51:16.112Z,4.70
2022-09-16T22:53:43.161Z,5.00
2022-09-16T22:56:10.825Z,3.77
2022-09-16T22:58:37.170Z,4.47
2022-09-16T23:01:11.227Z,3.77
2022-09-16T23:03:37.987Z,4.63
2022-09-16T23:06:05.878Z,4.37
2022-09-16T23:08:33.838Z,5.30
2022-09-16T23:11:04.255Z,3.73
2022-09-16T23:13:34.517Z,4.60
2022-09-16T23:16:05.618Z,5.17
2022-09-16T23:18:33.122Z,4.70
2022-09-16T23:21:09.625Z,4.60
2022-09-16T23:23:37.695Z,5.13
2022-09-16T23:26:05.642Z,5.13
2022-09-16T23:28:32.198Z,5.43
2022-09-16T23:31:05.440Z,4.70
2022-09-16T23:33:32.133Z,5.60
2022-09-16T23:35:58.510Z,5.50
2022-09-16T23:38:24.933Z,5.47
2022-09-16T23:40:51.284Z,5.73
2022-09-16T23:43:17.619Z,5.60
2022-09-16T23:45:45.538Z,4.67
2022-09-16T23:48:12.023Z,5.07
2022-09-16T23:50:38.402Z,4.73
2022-09-16T23:53:04.782Z,5.33
2022-09-16T23:55:31.188Z,4.17
2022-09-16T23:57:57.843Z,4.30
